Time;durP1;ratioP1;P1;durP2;ratioP2;P2;SDS_P1;SDS_P2;PMS_P1;PMS_P2;Temp;Humidity;BMP_temperature;BMP_pressure;BME280_temperature;BME280_humidity;BME280_pressure;Samples;Min_cycle;Max_cycle;Signal;HPM_P1;HPM_P2
2021/07/29 00:00:36;;;;;;;7.30;3.58;;;15.80;92.80;;;;;;4981435;28;20085;-56
2021/07/29 00:03:03;;;;;;;9.43;3.80;;;15.80;92.70;;;;;;4980993;28;20138;-55
2021/07/29 00:05:30;;;;;;;8.63;3.70;;;15.80;92.70;;;;;;4977292;28;20047;-53
2021/07/29 00:07:56;;;;;;;4.80;3.45;;;15.80;92.70;;;;;;4975377;28;20054;-55
2021/07/29 00:10:22;;;;;;;8.32;3.92;;;15.80;92.80;;;;;;4989036;28;20523;-53
2021/07/29 00:12:48;;;;;;;7.50;3.83;;;15.70;92.80;;;;;;4992394;28;20046;-56
2021/07/29 00:15:16;;;;;;;8.13;3.65;;;15.80;92.90;;;;;;4989980;28;20491;-54
2021/07/29 00:20:28;;;;;;;7.15;3.60;;;15.70;92.90;;;;;;4981802;28;20105;-56
2021/07/29 00:22:58;;;;;;;9.18;3.58;;;15.70;92.80;;;;;;4979437;28;20046;-55
2021/07/29 00:25:25;;;;;;;6.95;3.60;;;15.70;92.90;;;;;;4986622;28;20045;-56
2021/07/29 00:27:52;;;;;;;8.45;4.05;;;15.60;92.90;;;;;;4992011;28;20082;-54
2021/07/29 00:30:19;;;;;;;6.85;4.28;;;15.60;92.90;;;;;;4988493;28;20045;-56
2021/07/29 00:32:45;;;;;;;9.30;4.03;;;15.60;92.90;;;;;;4979419;28;20301;-56
2021/07/29 00:35:15;;;;;;;6.72;3.45;;;15.60;93.00;;;;;;5002433;28;20156;-56
2021/07/29 00:37:49;;;;;;;6.60;3.63;;;15.60;93.00;;;;;;4998878;28;20495;-55
2021/07/29 00:40:17;;;;;;;9.32;4.47;;;15.60;92.90;;;;;;5002143;28;20050;-55
2021/07/29 00:42:42;;;;;;;6.10;3.90;;;15.60;93.00;;;;;;4993406;28;20093;-55
2021/07/29 00:45:08;;;;;;;6.90;3.80;;;15.60;93.00;;;;;;4993269;28;20050;-55
2021/07/29 00:47:35;;;;;;;6.50;4.00;;;15.50;93.00;;;;;;4979947;28;20074;-55
2021/07/29 00:50:01;;;;;;;9.30;4.00;;;15.50;93.00;;;;;;4980093;28;20434;-56
2021/07/29 00:52:26;;;;;;;6.68;3.75;;;15.50;93.00;;;;;;4993166;28;20038;-56
2021/07/29 00:54:53;;;;;;;11.00;4.28;;;15.50;92.90;;;;;;4996392;28;20092;-55
2021/07/29 00:57:20;;;;;;;10.55;3.88;;;15.50;93.10;;;;;;4997825;28;20510;-55
2021/07/29 00:59:46;;;;;;;9.93;4.10;;;15.50;93.10;;;;;;4989745;28;20066;-56
2021/07/29 01:02:13;;;;;;;10.35;3.97;;;15.50;93.00;;;;;;4990900;28;20074;-55
2021/07/29 01:04:39;;;;;;;7.80;3.85;;;15.50;93.00;;;;;;4989398;28;20061;-55
2021/07/29 01:07:04;;;;;;;12.02;4.45;;;15.40;92.90;;;;;;4985231;28;20039;-55
2021/07/29 01:09:30;;;;;;;9.68;3.80;;;15.40;93.00;;;;;;4983041;28;20498;-55
2021/07/29 01:11:56;;;;;;;6.13;3.65;;;15.40;93.00;;;;;;4976346;28;20069;-54
2021/07/29 01:14:22;;;;;;;9.15;4.10;;;15.40;93.00;;;;;;4983185;28;20050;-55
2021/07/29 01:16:48;;;;;;;9.88;3.97;;;15.40;93.10;;;;;;4980542;28;20371;-56
2021/07/29 01:19:14;;;;;;;8.45;4.00;;;15.40;93.10;;;;;;4984652;28;20058;-56
2021/07/29 01:21:40;;;;;;;6.90;3.55;;;15.30;93.10;;;;;;4985201;28;20062;-55
2021/07/29 01:24:06;;;;;;;14.90;4.25;;;15.30;93.30;;;;;;4986234;28;20074;-56
2021/07/29 01:26:32;;;;;;;11.00;3.90;;;15.30;93.20;;;;;;4981175;28;20041;-55
2021/07/29 01:29:00;;;;;;;9.00;3.90;;;15.30;93.20;;;;;;4987746;28;20081;-56
2021/07/29 01:31:26;;;;;;;8.00;3.90;;;15.30;93.30;;;;;;4991906;28;20094;-56
2021/07/29 01:33:53;;;;;;;11.73;4.10;;;15.30;93.20;;;;;;4978242;28;20458;-55
2021/07/29 01:36:19;;;;;;;11.02;4.15;;;15.30;93.20;;;;;;4992002;28;20039;-54
2021/07/29 01:38:44;;;;;;;6.30;3.33;;;15.30;93.30;;;;;;4990205;28;20050;-54
2021/07/29 01:41:10;;;;;;;7.53;4.05;;;15.30;93.30;;;;;;4989268;28;20042;-55
2021/07/29 01:43:35;;;;;;;9.20;3.92;;;15.30;93.20;;;;;;4992789;28;20129;-52
2021/07/29 01:46:01;;;;;;;6.72;4.03;;;15.30;93.10;;;;;;4987612;28;20058;-54
2021/07/29 01:48:27;;;;;;;9.90;4.10;;;15.30;93.20;;;;;;4987328;28;20082;-55
2021/07/29 01:50:53;;;;;;;7.53;3.67;;;15.30;93.30;;;;;;4983572;28;20046;-54
2021/07/29 01:53:20;;;;;;;7.30;3.65;;;15.30;93.30;;;;;;4982801;28;20038;-55
2021/07/29 01:55:47;;;;;;;7.82;3.47;;;15.20;93.20;;;;;;4977030;28;20514;-56
2021/07/29 01:58:13;;;;;;;9.52;4.18;;;15.20;93.20;;;;;;4973313;28;20506;-55
2021/07/29 02:00:41;;;;;;;12.43;3.58;;;15.30;93.20;;;;;;4973145;28;20070;-52
2021/07/29 02:03:06;;;;;;;9.77;3.70;;;15.20;93.30;;;;;;4955532;28;20034;-53
2021/07/29 02:05:33;;;;;;;11.27;3.28;;;15.20;93.20;;;;;;4980350;28;20099;-54
2021/07/29 02:07:59;;;;;;;5.60;3.38;;;15.20;93.10;;;;;;4991515;28;20030;-55
2021/07/29 02:10:26;;;;;;;9.10;4.03;;;15.20;93.10;;;;;;4993384;28;20046;-56
2021/07/29 02:12:52;;;;;;;10.35;3.55;;;15.10;93.10;;;;;;5002054;28;20529;-54
2021/07/29 02:15:18;;;;;;;6.32;3.38;;;15.10;93.00;;;;;;4991515;28;20047;-54
2021/07/29 02:17:44;;;;;;;9.45;3.30;;;15.10;93.00;;;;;;4988321;28;20105;-52
2021/07/29 02:20:10;;;;;;;7.28;3.00;;;15.10;93.10;;;;;;4991299;28;20068;-55
2021/07/29 02:22:35;;;;;;;8.48;3.50;;;15.10;93.10;;;;;;4989875;28;20132;-55
2021/07/29 02:25:01;;;;;;;10.73;3.47;;;15.10;93.10;;;;;;4991463;28;20455;-56
2021/07/29 02:27:27;;;;;;;8.30;3.25;;;15.10;93.10;;;;;;4987381;28;20049;-53
2021/07/29 02:29:54;;;;;;;9.57;3.58;;;15.10;93.10;;;;;;4988730;28;20057;-55
2021/07/29 02:32:20;;;;;;;8.75;3.47;;;15.10;93.20;;;;;;5004334;28;20088;-55
2021/07/29 02:34:46;;;;;;;9.27;3.70;;;15.10;93.20;;;;;;4975132;28;20051;-56
2021/07/29 02:37:12;;;;;;;13.75;3.42;;;15.10;93.20;;;;;;4972105;28;20035;-54
2021/07/29 02:39:40;;;;;;;6.38;2.90;;;15.00;93.30;;;;;;4989608;28;20046;-55
2021/07/29 02:42:07;;;;;;;8.98;2.83;;;14.90;93.80;;;;;;4991324;28;20062;-54
2021/07/29 02:44:33;;;;;;;5.95;2.20;;;14.90;93.80;;;;;;4990679;28;20632;-55
2021/07/29 02:46:58;;;;;;;5.55;2.28;;;14.80;93.50;;;;;;4981052;28;20475;-52
2021/07/29 02:49:24;;;;;;;5.10;2.17;;;14.60;93.70;;;;;;4973076;28;20047;-54
2021/07/29 02:51:50;;;;;;;6.35;1.98;;;14.50;94.20;;;;;;4972244;28;20077;-56
2021/07/29 02:54:15;;;;;;;6.70;1.80;;;14.40;94.50;;;;;;4980281;28;20034;-54
2021/07/29 02:56:41;;;;;;;5.32;2.05;;;14.30;94.60;;;;;;4986411;28;20042;-54
2021/07/29 02:59:06;;;;;;;3.80;2.10;;;14.20;94.60;;;;;;4989023;28;20526;-54
2021/07/29 03:01:32;;;;;;;8.48;2.30;;;14.20;94.70;;;;;;4990543;28;20421;-56
2021/07/29 03:03:58;;;;;;;7.30;2.50;;;14.10;94.70;;;;;;4987009;28;20456;-56
2021/07/29 03:06:23;;;;;;;5.40;2.70;;;14.10;94.90;;;;;;4979703;28;20110;-55
2021/07/29 03:08:49;;;;;;;7.30;2.60;;;14.10;95.00;;;;;;4976556;28;20043;-55
2021/07/29 03:11:14;;;;;;;5.85;3.00;;;14.10;95.20;;;;;;5019303;23;20031;-48
2021/07/29 03:13:42;;;;;;;5.60;2.20;;;14.10;95.20;;;;;;4999346;28;20051;-50
2021/07/29 03:16:10;;;;;;;4.75;2.78;;;14.10;95.40;;;;;;4980838;28;20042;-47
2021/07/29 03:18:43;;;;;;;7.63;2.20;;;14.10;95.40;;;;;;4998957;28;20482;-49
2021/07/29 03:21:11;;;;;;;7.13;2.42;;;14.00;95.40;;;;;;4973647;28;20101;-49
2021/07/29 03:23:38;;;;;;;5.68;2.45;;;14.00;95.40;;;;;;4983457;28;20387;-52
2021/07/29 03:26:06;;;;;;;7.50;2.60;;;14.00;95.50;;;;;;4967259;28;20034;-51
2021/07/29 03:28:33;;;;;;;9.10;2.78;;;13.90;95.40;;;;;;4967230;28;20049;-53
2021/07/29 03:30:59;;;;;;;8.57;2.63;;;13.90;95.50;;;;;;4998850;28;20042;-49
2021/07/29 03:33:25;;;;;;;5.03;2.80;;;13.90;95.50;;;;;;5001787;28;20514;-50
2021/07/29 03:35:53;;;;;;;8.55;2.90;;;13.80;95.60;;;;;;4982189;28;20053;-53
2021/07/29 03:38:19;;;;;;;9.25;2.88;;;13.80;95.60;;;;;;4988905;28;20042;-52
2021/07/29 03:40:46;;;;;;;6.55;2.60;;;13.80;95.80;;;;;;4991060;28;20059;-50
2021/07/29 03:43:13;;;;;;;5.32;2.83;;;13.80;95.80;;;;;;4990955;28;20030;-53
2021/07/29 03:45:46;;;;;;;8.70;3.10;;;13.80;95.70;;;;;;4953976;28;20047;-51
2021/07/29 03:48:14;;;;;;;9.75;3.10;;;13.80;95.80;;;;;;4988580;28;20464;-52
2021/07/29 03:50:40;;;;;;;8.40;2.85;;;13.80;95.80;;;;;;4997863;28;20042;-48
2021/07/29 03:53:07;;;;;;;7.22;2.70;;;13.80;95.80;;;;;;4995456;28;20045;-49
2021/07/29 03:55:32;;;;;;;8.23;3.60;;;13.80;95.80;;;;;;4963695;28;20050;-51
2021/07/29 03:57:59;;;;;;;8.50;3.30;;;13.80;95.70;;;;;;4995637;28;20113;-52
2021/07/29 04:00:25;;;;;;;8.68;2.90;;;13.90;95.80;;;;;;4987972;28;20034;-47
2021/07/29 04:02:51;;;;;;;9.85;3.15;;;13.80;95.80;;;;;;4998666;28;20046;-49
2021/07/29 04:05:17;;;;;;;11.13;2.92;;;13.80;95.70;;;;;;4994942;28;20042;-47
2021/07/29 04:07:42;;;;;;;11.65;3.13;;;13.80;95.70;;;;;;5002174;28;20068;-50
2021/07/29 04:10:08;;;;;;;12.07;3.10;;;13.80;95.70;;;;;;4990645;28;20038;-51
2021/07/29 04:12:34;;;;;;;8.20;2.70;;;13.80;95.70;;;;;;4992819;28;20046;-50
2021/07/29 04:15:00;;;;;;;6.80;2.90;;;13.80;95.70;;;;;;4991543;28;20351;-49
2021/07/29 04:17:26;;;;;;;8.88;3.10;;;13.80;95.60;;;;;;4990406;28;20054;-51
2021/07/29 04:19:54;;;;;;;7.97;3.05;;;13.80;95.60;;;;;;4988428;28;20045;-47
2021/07/29 04:22:20;;;;;;;9.70;3.45;;;13.70;95.70;;;;;;4955932;28;20467;-49
2021/07/29 04:24:46;;;;;;;7.75;3.35;;;13.70;95.70;;;;;;4988514;28;20129;-51
2021/07/29 04:27:13;;;;;;;10.77;3.47;;;13.70;95.80;;;;;;4988926;28;20125;-51
2021/07/29 04:29:52;;;;;;;11.05;3.92;;;13.70;95.80;;;;;;4946001;28;20138;-51
2021/07/29 04:32:20;;;;;;;10.05;3.45;;;13.70;95.80;;;;;;4993632;28;20138;-50
2021/07/29 04:34:48;;;;;;;8.63;3.42;;;13.70;95.90;;;;;;4974770;28;20770;-51
2021/07/29 04:37:14;;;;;;;13.20;3.55;;;13.80;95.90;;;;;;4988521;28;20117;-50
2021/07/29 04:39:42;;;;;;;9.90;3.65;;;13.80;96.10;;;;;;4988229;28;20082;-50
2021/07/29 04:42:09;;;;;;;12.90;3.90;;;13.80;96.00;;;;;;4987964;28;20065;-50
2021/07/29 04:44:35;;;;;;;10.23;4.38;;;13.80;96.00;;;;;;5001336;28;20049;-52
2021/07/29 04:47:02;;;;;;;12.40;3.97;;;13.80;96.00;;;;;;5009614;28;20221;-49
2021/07/29 04:49:32;;;;;;;12.82;5.28;;;13.80;96.10;;;;;;4980441;28;20057;-47
2021/07/29 04:51:59;;;;;;;10.68;3.42;;;13.80;96.10;;;;;;4987010;28;20050;-50
2021/07/29 04:54:24;;;;;;;12.55;4.07;;;13.90;96.10;;;;;;5008907;28;20089;-51
2021/07/29 04:56:53;;;;;;;14.10;4.03;;;13.90;96.10;;;;;;4986791;28;20054;-52
2021/07/29 04:59:22;;;;;;;11.10;4.10;;;13.90;96.10;;;;;;4976757;28;20066;-50
2021/07/29 05:01:51;;;;;;;10.75;4.40;;;13.90;96.10;;;;;;4995614;28;20077;-53
2021/07/29 05:04:17;;;;;;;12.40;3.83;;;14.00;96.10;;;;;;4985113;28;20042;-50
2021/07/29 05:06:43;;;;;;;9.50;3.70;;;14.00;96.10;;;;;;4981868;28;20181;-49
2021/07/29 05:09:10;;;;;;;13.40;3.92;;;14.10;96.00;;;;;;4976987;28;20050;-49
2021/07/29 05:11:39;;;;;;;12.88;3.65;;;14.00;95.90;;;;;;4996958;28;20050;-50
2021/07/29 05:14:07;;;;;;;13.00;3.95;;;14.10;96.00;;;;;;4995439;28;20406;-47
2021/07/29 05:16:44;;;;;;;12.52;3.85;;;14.10;95.90;;;;;;4996750;28;20542;-49
2021/07/29 05:19:11;;;;;;;12.07;3.85;;;14.20;96.00;;;;;;4998443;28;20096;-50
2021/07/29 05:21:40;;;;;;;12.43;3.78;;;14.20;95.90;;;;;;4993876;28;20586;-50
2021/07/29 05:24:09;;;;;;;10.45;4.15;;;14.30;95.80;;;;;;4980342;28;20058;-49
2021/07/29 05:26:35;;;;;;;12.82;3.90;;;14.30;95.70;;;;;;4983976;28;20510;-51
2021/07/29 05:29:01;;;;;;;11.02;3.78;;;14.40;95.60;;;;;;4987715;28;20094;-51
2021/07/29 05:31:27;;;;;;;12.95;4.10;;;14.40;95.60;;;;;;4988031;28;20446;-49
2021/07/29 05:33:53;;;;;;;11.95;3.80;;;14.50;95.60;;;;;;4986537;28;20065;-51
2021/07/29 05:36:19;;;;;;;8.20;3.80;;;14.60;95.50;;;;;;4981707;28;20129;-51
2021/07/29 05:38:44;;;;;;;11.05;3.38;;;14.70;95.40;;;;;;4985239;28;20149;-49
2021/07/29 05:41:10;;;;;;;16.42;3.72;;;14.70;95.30;;;;;;4986875;28;20172;-50
2021/07/29 05:43:38;;;;;;;12.48;3.47;;;14.70;95.50;;;;;;4980197;28;20057;-50
2021/07/29 05:46:11;;;;;;;12.98;3.75;;;14.70;95.20;;;;;;4978990;28;20126;-50
2021/07/29 05:48:39;;;;;;;12.30;3.90;;;14.80;95.30;;;;;;4988949;28;20065;-51
2021/07/29 05:51:05;;;;;;;8.10;3.17;;;14.80;95.20;;;;;;4979668;28;20043;-50
2021/07/29 05:53:32;;;;;;;15.90;3.80;;;14.90;95.20;;;;;;5003033;28;20052;-53
2021/07/29 05:56:00;;;;;;;13.10;3.60;;;15.00;95.00;;;;;;4961692;28;20074;-53
2021/07/29 05:58:30;;;;;;;14.63;3.47;;;15.00;94.90;;;;;;4992161;28;20576;-49
2021/07/29 06:00:56;;;;;;;10.95;3.40;;;15.10;94.90;;;;;;4978130;28;20126;-50
2021/07/29 06:03:22;;;;;;;9.10;3.13;;;15.20;94.70;;;;;;4978864;28;20042;-50
2021/07/29 06:05:51;;;;;;;12.27;3.65;;;15.30;94.60;;;;;;4979394;28;20115;-50
2021/07/29 06:08:17;;;;;;;8.95;3.67;;;15.30;94.40;;;;;;4948276;28;20215;-49
2021/07/29 06:10:43;;;;;;;12.50;3.70;;;15.40;94.20;;;;;;4997085;28;20038;-53
2021/07/29 06:13:10;;;;;;;11.88;4.00;;;15.30;94.10;;;;;;5000036;28;20033;-50
2021/07/29 06:15:36;;;;;;;12.35;3.40;;;15.40;94.10;;;;;;4977431;28;20049;-51
2021/07/29 06:18:03;;;;;;;10.80;3.60;;;15.50;94.00;;;;;;4979067;28;20042;-49
2021/07/29 06:20:30;;;;;;;13.68;3.88;;;15.60;93.90;;;;;;4997709;28;20054;-52
2021/07/29 06:22:56;;;;;;;13.63;3.75;;;15.60;94.00;;;;;;4994667;28;20046;-51
2021/07/29 06:25:22;;;;;;;13.20;4.00;;;15.60;94.00;;;;;;4997435;28;20053;-49
2021/07/29 06:27:49;;;;;;;11.50;3.80;;;15.70;94.10;;;;;;4984056;28;20052;-53
2021/07/29 06:30:16;;;;;;;12.05;3.90;;;15.70;94.00;;;;;;4995995;28;20045;-52
2021/07/29 06:32:43;;;;;;;12.57;3.58;;;15.70;94.10;;;;;;4993904;28;20054;-52
2021/07/29 06:35:10;;;;;;;13.93;3.50;;;15.70;94.30;;;;;;4942609;28;20039;-52
2021/07/29 06:37:37;;;;;;;14.50;4.03;;;15.70;94.00;;;;;;4985787;28;20117;-52
2021/07/29 06:40:03;;;;;;;14.45;3.67;;;15.70;93.90;;;;;;4993534;28;20114;-52
2021/07/29 06:42:29;;;;;;;10.75;3.60;;;15.60;94.00;;;;;;4984138;28;20051;-53
2021/07/29 06:44:56;;;;;;;12.25;3.35;;;15.60;94.10;;;;;;4977381;28;20514;-52
2021/07/29 06:47:23;;;;;;;8.82;3.00;;;15.60;94.20;;;;;;4973215;28;20138;-51
2021/07/29 06:49:49;;;;;;;15.52;3.60;;;15.60;94.10;;;;;;4978572;28;20046;-52
2021/07/29 06:52:15;;;;;;;11.57;3.67;;;15.60;94.00;;;;;;4995299;28;20054;-53
2021/07/29 06:54:40;;;;;;;12.40;3.33;;;15.70;93.90;;;;;;4997132;28;20043;-51
2021/07/29 06:57:08;;;;;;;12.82;3.50;;;15.60;93.80;;;;;;4982616;28;20059;-49
2021/07/29 06:59:34;;;;;;;13.35;3.60;;;15.70;93.90;;;;;;4983855;28;20047;-52
2021/07/29 07:02:00;;;;;;;14.13;3.88;;;15.70;94.00;;;;;;4997304;28;20066;-49
2021/07/29 07:04:26;;;;;;;8.48;3.03;;;15.70;93.80;;;;;;4977489;28;20054;-52
2021/07/29 07:06:52;;;;;;;14.63;3.45;;;15.80;93.30;;;;;;4977669;28;20049;-50
2021/07/29 07:09:18;;;;;;;12.40;3.55;;;15.70;93.30;;;;;;4990697;28;20109;-53
2021/07/29 07:11:44;;;;;;;11.07;2.95;;;15.70;93.30;;;;;;4976789;28;20042;-49
2021/07/29 07:14:12;;;;;;;8.80;2.97;;;15.70;93.20;;;;;;4982519;28;20054;-51
2021/07/29 07:16:37;;;;;;;10.13;3.03;;;15.70;93.20;;;;;;4975849;28;20042;-49
2021/07/29 07:19:05;;;;;;;11.23;3.20;;;15.70;93.20;;;;;;4997986;28;20046;-53
2021/07/29 07:21:37;;;;;;;7.80;2.97;;;15.80;92.90;;;;;;4981288;28;20074;-52
2021/07/29 07:24:06;;;;;;;10.52;3.38;;;15.90;93.00;;;;;;4984791;28;20521;-51
2021/07/29 07:26:32;;;;;;;11.32;3.95;;;16.10;93.00;;;;;;4995460;28;20065;-49
2021/07/29 07:28:58;;;;;;;11.90;3.92;;;16.30;92.80;;;;;;4994581;28;20057;-53
2021/07/29 07:31:23;;;;;;;12.18;4.40;;;16.30;92.70;;;;;;4988128;28;20050;-52
2021/07/29 07:33:49;;;;;;;14.00;4.25;;;16.30;92.70;;;;;;4982267;28;20042;-49
2021/07/29 07:36:19;;;;;;;20.27;5.38;;;16.30;92.70;;;;;;4973828;28;20054;-53
2021/07/29 07:38:45;;;;;;;13.10;3.90;;;16.20;92.90;;;;;;4987031;28;20035;-51
2021/07/29 07:41:14;;;;;;;13.38;4.35;;;16.20;93.10;;;;;;4961655;28;20054;-51
2021/07/29 07:43:42;;;;;;;12.73;3.97;;;16.10;93.10;;;;;;4966760;28;20513;-52
2021/07/29 07:46:08;;;;;;;13.25;3.65;;;16.10;93.30;;;;;;4998940;28;20110;-53
2021/07/29 07:48:33;;;;;;;14.65;3.95;;;16.00;93.30;;;;;;4998197;28;20074;-51
2021/07/29 07:51:03;;;;;;;12.63;3.40;;;16.00;93.00;;;;;;4998271;28;20042;-49
2021/07/29 07:53:29;;;;;;;12.45;3.78;;;16.10;92.50;;;;;;4981277;28;20073;-52
2021/07/29 07:55:56;;;;;;;13.18;3.85;;;16.10;92.20;;;;;;4999012;28;20414;-50
2021/07/29 07:58:22;;;;;;;13.55;4.00;;;16.10;92.40;;;;;;4990963;28;20066;-53
2021/07/29 08:00:48;;;;;;;13.30;3.60;;;16.10;92.20;;;;;;4981997;28;20069;-53
2021/07/29 08:03:14;;;;;;;12.45;3.30;;;16.10;92.20;;;;;;4996710;28;20030;-52
2021/07/29 08:05:41;;;;;;;8.40;3.30;;;16.30;91.90;;;;;;4965069;28;20172;-53
2021/07/29 08:08:08;;;;;;;10.80;3.10;;;16.40;91.40;;;;;;4999319;28;20062;-50
2021/07/29 08:10:38;;;;;;;11.57;3.40;;;16.60;91.10;;;;;;4981647;28;20046;-52
2021/07/29 08:13:06;;;;;;;14.85;3.13;;;16.70;91.10;;;;;;4983748;28;20138;-52
2021/07/29 08:15:33;;;;;;;13.40;3.50;;;16.90;90.70;;;;;;4979727;28;20046;-53
2021/07/29 08:17:59;;;;;;;15.43;3.85;;;17.00;90.60;;;;;;4995155;28;20065;-50
2021/07/29 08:20:25;;;;;;;10.80;3.00;;;17.10;90.50;;;;;;5000454;28;20050;-50
2021/07/29 08:22:52;;;;;;;13.30;2.83;;;17.30;90.40;;;;;;4999028;28;20132;-51
2021/07/29 08:25:20;;;;;;;10.90;3.22;;;17.30;89.90;;;;;;4997690;28;20510;-53
2021/07/29 08:27:50;;;;;;;9.57;2.90;;;17.40;90.10;;;;;;4997928;28;20567;-52
2021/07/29 08:30:17;;;;;;;10.60;2.95;;;17.40;90.00;;;;;;4986477;28;20096;-52
2021/07/29 08:32:46;;;;;;;9.90;2.95;;;17.50;89.60;;;;;;4984220;28;20047;-51
2021/07/29 08:35:13;;;;;;;13.52;3.40;;;17.60;89.30;;;;;;4981931;28;20035;-52
2021/07/29 08:37:44;;;;;;;9.43;2.70;;;17.60;87.70;;;;;;5000320;28;20073;-53
2021/07/29 08:40:10;;;;;;;9.55;2.97;;;17.60;87.50;;;;;;4998292;28;20046;-52
2021/07/29 08:42:36;;;;;;;6.78;2.50;;;17.70;86.00;;;;;;4998233;28;20046;-53
2021/07/29 08:45:02;;;;;;;11.35;2.78;;;17.80;86.50;;;;;;4984120;28;20414;-54
2021/07/29 08:47:32;;;;;;;9.05;2.70;;;17.80;85.80;;;;;;4996831;28;20046;-52
2021/07/29 08:50:03;;;;;;;8.55;2.70;;;17.90;86.50;;;;;;4994528;28;20050;-53
2021/07/29 08:52:32;;;;;;;7.63;3.13;;;17.90;85.40;;;;;;4977870;28;20046;-53
2021/07/29 08:54:58;;;;;;;9.35;2.70;;;18.10;85.70;;;;;;4998291;28;20310;-54
2021/07/29 08:57:32;;;;;;;8.13;2.88;;;18.10;84.70;;;;;;4997106;28;20045;-53
2021/07/29 09:00:03;;;;;;;8.77;2.58;;;18.10;84.80;;;;;;4976865;28;20057;-52
2021/07/29 09:02:29;;;;;;;8.17;2.40;;;18.10;84.10;;;;;;4978777;28;20038;-51
2021/07/29 09:05:15;;;;;;;12.32;3.85;;;18.20;84.50;;;;;;4986122;28;20089;-48
2021/07/29 09:07:42;;;;;;;10.23;3.00;;;18.20;80.80;;;;;;4976975;28;20047;-52
2021/07/29 09:10:24;;;;;;;9.82;2.78;;;18.20;82.30;;;;;;4983925;28;20041;-51
2021/07/29 09:13:09;;;;;;;9.98;2.90;;;18.30;82.40;;;;;;4996150;28;20073;-51
2021/07/29 09:15:35;;;;;;;10.25;3.13;;;18.40;83.20;;;;;;4989315;28;20045;-50
2021/07/29 09:18:02;;;;;;;10.38;2.97;;;18.40;82.90;;;;;;4994907;28;20069;-50
2021/07/29 09:20:28;;;;;;;9.50;2.85;;;18.50;82.90;;;;;;4996609;28;20061;-50
2021/07/29 09:22:54;;;;;;;12.10;3.30;;;18.60;82.00;;;;;;4996424;28;20045;-52
2021/07/29 09:25:26;;;;;;;10.63;3.15;;;18.60;81.80;;;;;;4996781;28;20101;-50
2021/07/29 09:27:52;;;;;;;9.18;2.97;;;18.70;82.00;;;;;;4993385;28;20494;-48
2021/07/29 09:30:20;;;;;;;12.20;2.92;;;18.80;82.50;;;;;;4983684;28;20088;-51
2021/07/29 09:32:53;;;;;;;7.25;2.55;;;18.90;81.40;;;;;;4996529;28;20053;-51
2021/07/29 09:35:29;;;;;;;8.82;2.78;;;18.80;77.70;;;;;;4962643;28;20125;-51
2021/07/29 09:37:58;;;;;;;8.30;2.30;;;18.70;79.20;;;;;;4995794;28;20053;-51
2021/07/29 09:40:24;;;;;;;8.43;2.70;;;18.70;79.10;;;;;;4979665;28;20096;-52
2021/07/29 09:43:11;;;;;;;6.70;2.20;;;18.60;78.10;;;;;;4984644;28;20051;-51
2021/07/29 09:45:37;;;;;;;6.10;2.30;;;18.70;76.50;;;;;;4984173;28;20034;-51
2021/07/29 09:48:08;;;;;;;9.73;2.45;;;18.60;76.20;;;;;;4996857;28;20077;-51
2021/07/29 09:50:35;;;;;;;9.95;2.53;;;18.80;77.50;;;;;;4977951;28;20101;-48
2021/07/29 09:53:03;;;;;;;5.80;2.30;;;18.90;76.60;;;;;;4965773;28;20058;-52
2021/07/29 09:55:30;;;;;;;9.35;2.30;;;19.00;75.50;;;;;;4979445;28;20073;-51
2021/07/29 09:57:56;;;;;;;12.50;2.25;;;19.10;74.70;;;;;;4997289;28;20561;-51
2021/07/29 10:00:22;;;;;;;10.43;2.22;;;19.20;74.30;;;;;;4996091;28;20046;-52
2021/07/29 10:02:49;;;;;;;9.35;2.30;;;19.10;70.50;;;;;;4989389;28;20418;-51
2021/07/29 10:05:18;;;;;;;7.00;2.55;;;19.20;72.70;;;;;;4963734;28;20074;-51
2021/07/29 10:07:48;;;;;;;7.18;2.20;;;19.30;71.40;;;;;;4994671;28;20522;-50
2021/07/29 10:10:21;;;;;;;7.70;2.20;;;19.30;71.10;;;;;;4978367;28;20459;-54
2021/07/29 10:12:48;;;;;;;6.10;2.20;;;19.40;71.90;;;;;;4981692;28;20113;-53
2021/07/29 10:15:41;;;;;;;7.10;2.03;;;19.50;68.40;;;;;;4991505;28;20038;-49
2021/07/29 10:18:09;;;;;;;7.55;2.63;;;19.60;70.30;;;;;;4978726;28;20434;-51
2021/07/29 10:20:36;;;;;;;9.38;2.38;;;19.50;72.00;;;;;;4997125;28;20046;-52
2021/07/29 10:23:14;;;;;;;5.35;2.13;;;19.30;70.10;;;;;;4994838;28;20427;-51
2021/07/29 10:26:03;;;;;;;4.55;2.33;;;19.10;69.70;;;;;;4996924;28;20050;-50
2021/07/29 10:28:35;;;;;;;7.68;2.15;;;19.10;71.20;;;;;;4982224;28;20042;-50
2021/07/29 10:31:02;;;;;;;10.00;2.13;;;19.10;70.70;;;;;;4981655;28;20053;-51
2021/07/29 10:33:31;;;;;;;7.13;2.10;;;19.30;71.40;;;;;;4962838;28;20046;-53
2021/07/29 10:36:00;;;;;;;8.73;2.60;;;19.50;71.10;;;;;;4978235;28;20052;-53
2021/07/29 10:38:45;;;;;;;9.65;2.20;;;19.40;71.60;;;;;;4975944;28;20055;-51
2021/07/29 10:41:23;;;;;;;8.18;2.10;;;19.40;67.70;;;;;;4983246;28;20410;-52
2021/07/29 10:43:51;;;;;;;6.65;2.10;;;19.30;67.00;;;;;;4981063;28;20051;-52
2021/07/29 10:46:18;;;;;;;7.32;2.10;;;19.20;69.40;;;;;;4994909;28;20537;-53
2021/07/29 10:48:47;;;;;;;5.25;1.88;;;19.30;70.00;;;;;;4995135;28;20042;-51
2021/07/29 10:51:18;;;;;;;6.65;2.08;;;19.30;67.50;;;;;;4963178;28;20065;-54
2021/07/29 10:53:44;;;;;;;9.10;2.20;;;19.20;68.50;;;;;;4992150;28;20038;-53
2021/07/29 10:56:13;;;;;;;6.82;2.17;;;19.10;64.90;;;;;;4993577;28;20560;-51
2021/07/29 10:58:41;;;;;;;5.00;1.92;;;19.00;66.00;;;;;;4975714;28;20042;-54
2021/07/29 11:01:09;;;;;;;10.07;2.33;;;19.00;66.60;;;;;;4992515;28;20053;-54
2021/07/29 11:03:34;;;;;;;4.88;2.00;;;19.00;66.00;;;;;;4994007;28;20042;-51
2021/07/29 11:06:06;;;;;;;7.95;2.35;;;18.90;67.00;;;;;;4989138;28;20047;-53
2021/07/29 11:08:32;;;;;;;5.88;1.77;;;18.90;64.00;;;;;;4985754;28;20069;-53
2021/07/29 11:11:00;;;;;;;6.10;2.03;;;19.00;64.10;;;;;;4977033;28;20053;-52
2021/07/29 11:13:29;;;;;;;9.45;2.17;;;19.00;65.40;;;;;;4959570;28;20142;-53
2021/07/29 11:16:01;;;;;;;5.43;2.17;;;18.90;66.20;;;;;;4977463;28;20065;-53
2021/07/29 11:18:27;;;;;;;7.55;2.03;;;18.90;66.70;;;;;;4998025;28;20108;-53
2021/07/29 11:20:53;;;;;;;8.48;2.10;;;18.70;67.40;;;;;;4999779;28;20589;-54
2021/07/29 11:23:37;;;;;;;7.90;2.50;;;18.70;68.90;;;;;;4983499;28;20046;-51
2021/07/29 11:26:05;;;;;;;6.63;2.15;;;18.70;69.20;;;;;;4964282;28;20046;-53
2021/07/29 11:28:34;;;;;;;9.85;2.20;;;18.80;68.60;;;;;;4980854;28;20076;-52
2021/07/29 11:31:03;;;;;;;6.07;2.20;;;19.00;70.40;;;;;;4984350;28;20050;-53
2021/07/29 11:33:29;;;;;;;6.53;2.35;;;19.30;71.50;;;;;;5003079;28;20049;-53
2021/07/29 11:35:56;;;;;;;8.90;2.40;;;19.50;68.40;;;;;;5005493;28;20054;-51
2021/07/29 11:38:24;;;;;;;8.80;2.33;;;19.50;69.00;;;;;;4991289;28;20137;-49
2021/07/29 11:41:00;;;;;;;5.47;2.35;;;19.50;68.80;;;;;;5006222;28;20041;-52
2021/07/29 11:43:33;;;;;;;6.53;2.35;;;19.60;68.00;;;;;;4979914;28;20050;-52
2021/07/29 11:46:06;;;;;;;6.45;2.17;;;19.70;67.90;;;;;;5011351;28;20047;-50
2021/07/29 11:48:32;;;;;;;6.63;2.22;;;19.90;67.60;;;;;;4995249;28;20034;-51
2021/07/29 11:50:59;;;;;;;7.78;2.47;;;20.00;67.30;;;;;;4993797;28;20106;-48
2021/07/29 11:53:40;;;;;;;9.90;2.33;;;20.10;65.70;;;;;;4980593;28;20038;-51
2021/07/29 11:56:10;;;;;;;4.93;1.85;;;20.20;65.50;;;;;;4981328;28;20041;-50
2021/07/29 11:58:40;;;;;;;7.07;2.08;;;20.30;63.00;;;;;;4985377;28;20069;-54
2021/07/29 12:01:11;;;;;;;5.60;2.10;;;20.30;62.00;;;;;;4995867;28;20038;-48
2021/07/29 12:03:42;;;;;;;6.68;2.30;;;20.30;61.10;;;;;;4996575;28;20047;-48
2021/07/29 12:06:10;;;;;;;6.90;2.67;;;20.40;63.50;;;;;;4981688;28;20073;-51
2021/07/29 12:08:42;;;;;;;7.53;2.30;;;20.50;64.10;;;;;;4979859;28;20137;-48
2021/07/29 12:11:10;;;;;;;6.93;2.00;;;20.60;64.90;;;;;;4979018;28;20085;-53
2021/07/29 12:13:43;;;;;;;6.78;2.20;;;20.70;65.20;;;;;;4962691;28;20046;-54
2021/07/29 12:16:09;;;;;;;5.25;2.00;;;20.90;65.70;;;;;;4996036;28;20042;-52
2021/07/29 12:18:35;;;;;;;6.53;2.03;;;20.90;61.60;;;;;;4996214;28;20096;-54
2021/07/29 12:21:01;;;;;;;5.68;1.90;;;20.90;60.90;;;;;;4994444;28;20054;-54
2021/07/29 12:23:28;;;;;;;9.25;2.17;;;20.80;60.40;;;;;;4996171;28;20454;-53
2021/07/29 12:25:56;;;;;;;8.82;2.13;;;20.80;61.10;;;;;;5000820;28;20043;-54
2021/07/29 12:28:39;;;;;;;6.90;1.90;;;20.80;61.60;;;;;;4978056;28;20105;-52
2021/07/29 12:31:24;;;;;;;;;;;20.60;59.80;;;;;;4996187;28;20054;-53
2021/07/29 12:33:50;;;;;;;6.63;2.20;;;20.50;59.90;;;;;;4988168;28;19921;-53
2021/07/29 12:36:17;;;;;;;7.65;2.50;;;20.40;61.40;;;;;;4985171;28;20061;-53
2021/07/29 12:38:45;;;;;;;8.10;2.03;;;20.30;62.70;;;;;;4992905;28;20042;-52
2021/07/29 12:41:37;;;;;;;8.82;2.30;;;20.00;61.00;;;;;;4984527;28;20048;-51
2021/07/29 12:44:16;;;;;;;6.50;2.03;;;19.90;62.30;;;;;;5000946;28;20081;-53
2021/07/29 12:46:43;;;;;;;6.50;1.92;;;20.00;64.10;;;;;;4993295;28;20450;-53
2021/07/29 12:49:10;;;;;;;4.93;1.95;;;20.00;62.80;;;;;;4995620;28;20495;-53